sensor_id;sensor_type;location;lat;lon;timestamp;P1;durP1;ratioP1;P2;durP2;ratioP2
21513;SDS011;10918;48.102;11.636;2022-12-11T00:02:03;25.15;;;15.77;;
21513;SDS011;10918;48.102;11.636;2022-12-11T00:04:29;26.50;;;15.43;;
21513;SDS011;10918;48.102;11.636;2022-12-11T00:06:55;25.23;;;15.70;;
21513;SDS011;10918;48.102;11.636;2022-12-11T00:09:22;22.65;;;15.05;;
21513;SDS011;10918;48.102;11.636;2022-12-11T00:11:48;25.38;;;15.18;;
21513;SDS011;10918;48.102;11.636;2022-12-11T00:14:14;22.15;;;14.95;;
21513;SDS011;10918;48.102;11.636;2022-12-11T00:16:40;25.75;;;15.27;;
21513;SDS011;10918;48.102;11.636;2022-12-11T00:19:06;24.42;;;14.52;;
21513;SDS011;10918;48.102;11.636;2022-12-11T00:21:32;25.17;;;15.00;;
21513;SDS011;10918;48.102;11.636;2022-12-11T00:23:58;21.48;;;14.13;;
21513;SDS011;10918;48.102;11.636;2022-12-11T00:26:25;23.63;;;15.43;;
21513;SDS011;10918;48.102;11.636;2022-12-11T00:28:51;23.27;;;15.57;;
21513;SDS011;10918;48.102;11.636;2022-12-11T00:31:18;23.08;;;14.88;;
21513;SDS011;10918;48.102;11.636;2022-12-11T00:33:44;23.40;;;14.80;;
21513;SDS011;10918;48.102;11.636;2022-12-11T00:36:13;22.85;;;14.18;;
21513;SDS011;10918;48.102;11.636;2022-12-11T00:38:40;24.98;;;14.70;;
21513;SDS011;10918;48.102;11.636;2022-12-11T00:41:07;24.10;;;14.90;;
21513;SDS011;10918;48.102;11.636;2022-12-11T00:43:33;24.10;;;14.43;;
21513;SDS011;10918;48.102;11.636;2022-12-11T00:45:59;24.85;;;15.40;;
21513;SDS011;10918;48.102;11.636;2022-12-11T00:48:25;24.45;;;14.80;;
21513;SDS011;10918;48.102;11.636;2022-12-11T00:50:51;27.20;;;17.77;;
21513;SDS011;10918;48.102;11.636;2022-12-11T00:53:17;23.08;;;15.38;;
21513;SDS011;10918;48.102;11.636;2022-12-11T00:55:43;26.15;;;14.57;;
21513;SDS011;10918;48.102;11.636;2022-12-11T00:58:10;25.83;;;15.00;;
21513;SDS011;10918;48.102;11.636;2022-12-11T01:00:37;22.67;;;13.65;;
21513;SDS011;10918;48.102;11.636;2022-12-11T01:03:03;23.23;;;15.00;;
21513;SDS011;10918;48.102;11.636;2022-12-11T01:05:29;22.73;;;14.90;;
21513;SDS011;10918;48.102;11.636;2022-12-11T01:07:55;22.73;;;14.32;;
21513;SDS011;10918;48.102;11.636;2022-12-11T01:10:21;22.60;;;13.95;;
21513;SDS011;10918;48.102;11.636;2022-12-11T01:12:51;22.17;;;13.93;;
21513;SDS011;10918;48.102;11.636;2022-12-11T01:15:18;22.58;;;13.77;;
21513;SDS011;10918;48.102;11.636;2022-12-11T01:17:44;20.00;;;13.38;;
21513;SDS011;10918;48.102;11.636;2022-12-11T01:20:10;23.77;;;13.25;;
21513;SDS011;10918;48.102;11.636;2022-12-11T01:22:36;19.95;;;12.90;;
21513;SDS011;10918;48.102;11.636;2022-12-11T01:25:02;25.05;;;14.13;;
21513;SDS011;10918;48.102;11.636;2022-12-11T01:27:29;21.70;;;13.85;;
21513;SDS011;10918;48.102;11.636;2022-12-11T01:29:55;19.90;;;12.73;;
21513;SDS011;10918;48.102;11.636;2022-12-11T01:32:21;21.15;;;13.27;;
21513;SDS011;10918;48.102;11.636;2022-12-11T01:34:47;24.10;;;14.18;;
21513;SDS011;10918;48.102;11.636;2022-12-11T01:37:13;23.13;;;13.18;;
21513;SDS011;10918;48.102;11.636;2022-12-11T01:39:39;22.98;;;12.63;;
21513;SDS011;10918;48.102;11.636;2022-12-11T01:42:05;25.30;;;14.27;;
21513;SDS011;10918;48.102;11.636;2022-12-11T01:47:00;21.52;;;13.88;;
21513;SDS011;10918;48.102;11.636;2022-12-11T01:49:26;23.27;;;14.50;;
21513;SDS011;10918;48.102;11.636;2022-12-11T01:52:04;21.50;;;13.55;;
21513;SDS011;10918;48.102;11.636;2022-12-11T01:54:32;19.92;;;13.13;;
21513;SDS011;10918;48.102;11.636;2022-12-11T01:57:03;24.15;;;13.75;;
21513;SDS011;10918;48.102;11.636;2022-12-11T01:59:32;21.92;;;12.68;;
21513;SDS011;10918;48.102;11.636;2022-12-11T02:02:02;25.52;;;14.38;;
21513;SDS011;10918;48.102;11.636;2022-12-11T02:04:29;21.15;;;13.52;;
21513;SDS011;10918;48.102;11.636;2022-12-11T02:06:55;19.63;;;12.13;;
21513;SDS011;10918;48.102;11.636;2022-12-11T02:09:25;21.13;;;13.15;;
21513;SDS011;10918;48.102;11.636;2022-12-11T02:17:06;20.40;;;12.35;;
21513;SDS011;10918;48.102;11.636;2022-12-11T02:22:01;19.42;;;12.20;;
21513;SDS011;10918;48.102;11.636;2022-12-11T02:24:46;18.90;;;11.88;;
21513;SDS011;10918;48.102;11.636;2022-12-11T02:27:19;19.33;;;12.48;;
21513;SDS011;10918;48.102;11.636;2022-12-11T02:29:49;19.67;;;12.80;;
21513;SDS011;10918;48.102;11.636;2022-12-11T02:32:51;18.85;;;12.07;;
21513;SDS011;10918;48.102;11.636;2022-12-11T02:35:10;18.88;;;12.10;;
21513;SDS011;10918;48.102;11.636;2022-12-11T02:37:38;20.00;;;12.38;;
21513;SDS011;10918;48.102;11.636;2022-12-11T02:40:06;23.38;;;12.93;;
21513;SDS011;10918;48.102;11.636;2022-12-11T02:42:33;20.80;;;13.35;;
21513;SDS011;10918;48.102;11.636;2022-12-11T02:45:00;19.10;;;11.50;;
21513;SDS011;10918;48.102;11.636;2022-12-11T02:47:28;21.95;;;13.82;;
21513;SDS011;10918;48.102;11.636;2022-12-11T02:49:56;19.98;;;12.52;;
21513;SDS011;10918;48.102;11.636;2022-12-11T02:52:22;19.00;;;12.13;;
21513;SDS011;10918;48.102;11.636;2022-12-11T02:54:50;20.15;;;12.52;;
21513;SDS011;10918;48.102;11.636;2022-12-11T02:57:24;19.08;;;11.77;;
21513;SDS011;10918;48.102;11.636;2022-12-11T02:59:52;19.48;;;12.13;;
21513;SDS011;10918;48.102;11.636;2022-12-11T03:02:18;19.83;;;13.10;;
21513;SDS011;10918;48.102;11.636;2022-12-11T03:04:45;18.55;;;11.98;;
21513;SDS011;10918;48.102;11.636;2022-12-11T03:07:15;18.75;;;12.07;;
21513;SDS011;10918;48.102;11.636;2022-12-11T03:09:43;20.63;;;12.30;;
21513;SDS011;10918;48.102;11.636;2022-12-11T03:12:11;17.85;;;11.73;;
21513;SDS011;10918;48.102;11.636;2022-12-11T03:14:40;16.33;;;11.68;;
21513;SDS011;10918;48.102;11.636;2022-12-11T03:17:10;17.17;;;11.15;;
21513;SDS011;10918;48.102;11.636;2022-12-11T03:22:39;17.85;;;11.20;;
21513;SDS011;10918;48.102;11.636;2022-12-11T03:25:08;17.20;;;11.13;;
21513;SDS011;10918;48.102;11.636;2022-12-11T03:27:35;16.02;;;11.02;;
21513;SDS011;10918;48.102;11.636;2022-12-11T03:30:04;16.05;;;10.73;;
21513;SDS011;10918;48.102;11.636;2022-12-11T03:32:34;17.27;;;9.77;;
21513;SDS011;10918;48.102;11.636;2022-12-11T03:37:31;15.60;;;10.30;;
21513;SDS011;10918;48.102;11.636;2022-12-11T03:40:02;17.05;;;10.60;;
21513;SDS011;10918;48.102;11.636;2022-12-11T03:42:30;15.57;;;9.43;;
21513;SDS011;10918;48.102;11.636;2022-12-11T03:44:56;14.65;;;9.48;;
21513;SDS011;10918;48.102;11.636;2022-12-11T03:47:24;12.93;;;9.05;;
21513;SDS011;10918;48.102;11.636;2022-12-11T03:49:51;15.45;;;10.55;;
21513;SDS011;10918;48.102;11.636;2022-12-11T03:52:18;13.07;;;9.13;;
21513;SDS011;10918;48.102;11.636;2022-12-11T03:54:45;15.30;;;9.38;;
21513;SDS011;10918;48.102;11.636;2022-12-11T03:57:12;14.43;;;9.35;;
21513;SDS011;10918;48.102;11.636;2022-12-11T03:59:40;13.07;;;9.07;;
21513;SDS011;10918;48.102;11.636;2022-12-11T04:02:06;16.10;;;10.23;;
21513;SDS011;10918;48.102;11.636;2022-12-11T04:04:34;16.25;;;10.27;;
21513;SDS011;10918;48.102;11.636;2022-12-11T04:07:00;14.02;;;9.35;;
21513;SDS011;10918;48.102;11.636;2022-12-11T04:09:26;16.98;;;10.23;;
21513;SDS011;10918;48.102;11.636;2022-12-11T04:11:52;15.13;;;9.32;;
21513;SDS011;10918;48.102;11.636;2022-12-11T04:14:18;15.88;;;9.75;;
21513;SDS011;10918;48.102;11.636;2022-12-11T04:17:04;14.88;;;9.10;;
21513;SDS011;10918;48.102;11.636;2022-12-11T04:19:30;14.32;;;8.88;;
21513;SDS011;10918;48.102;11.636;2022-12-11T04:22:15;14.75;;;9.52;;
21513;SDS011;10918;48.102;11.636;2022-12-11T04:25:01;13.13;;;8.20;;
21513;SDS011;10918;48.102;11.636;2022-12-11T04:27:27;14.95;;;9.75;;
21513;SDS011;10918;48.102;11.636;2022-12-11T04:30:13;15.10;;;9.35;;
21513;SDS011;10918;48.102;11.636;2022-12-11T04:32:39;15.15;;;9.70;;
21513;SDS011;10918;48.102;11.636;2022-12-11T04:35:06;16.58;;;9.63;;
21513;SDS011;10918;48.102;11.636;2022-12-11T04:37:32;14.70;;;9.50;;
21513;SDS011;10918;48.102;11.636;2022-12-11T04:39:58;17.15;;;9.82;;
21513;SDS011;10918;48.102;11.636;2022-12-11T04:42:24;14.02;;;9.02;;
21513;SDS011;10918;48.102;11.636;2022-12-11T04:44:50;14.80;;;9.32;;
21513;SDS011;10918;48.102;11.636;2022-12-11T04:47:16;15.10;;;9.65;;
21513;SDS011;10918;48.102;11.636;2022-12-11T04:49:42;14.43;;;9.95;;
21513;SDS011;10918;48.102;11.636;2022-12-11T04:52:08;17.38;;;10.82;;
21513;SDS011;10918;48.102;11.636;2022-12-11T04:54:34;15.60;;;10.23;;
21513;SDS011;10918;48.102;11.636;2022-12-11T04:57:00;16.52;;;9.65;;
21513;SDS011;10918;48.102;11.636;2022-12-11T04:59:26;15.27;;;9.85;;
21513;SDS011;10918;48.102;11.636;2022-12-11T05:01:52;16.05;;;9.57;;
21513;SDS011;10918;48.102;11.636;2022-12-11T05:04:18;15.30;;;9.75;;
21513;SDS011;10918;48.102;11.636;2022-12-11T05:06:44;15.80;;;9.90;;
21513;SDS011;10918;48.102;11.636;2022-12-11T05:09:10;16.70;;;10.38;;
21513;SDS011;10918;48.102;11.636;2022-12-11T05:11:36;17.02;;;10.07;;
21513;SDS011;10918;48.102;11.636;2022-12-11T05:14:02;15.07;;;9.88;;
21513;SDS011;10918;48.102;11.636;2022-12-11T05:16:28;15.18;;;9.82;;
21513;SDS011;10918;48.102;11.636;2022-12-11T05:18:54;14.90;;;9.25;;
21513;SDS011;10918;48.102;11.636;2022-12-11T05:21:20;14.32;;;9.50;;
21513;SDS011;10918;48.102;11.636;2022-12-11T05:23:46;16.83;;;10.73;;
21513;SDS011;10918;48.102;11.636;2022-12-11T05:26:16;16.75;;;9.93;;
21513;SDS011;10918;48.102;11.636;2022-12-11T05:28:43;16.40;;;10.00;;
21513;SDS011;10918;48.102;11.636;2022-12-11T05:31:13;16.88;;;10.85;;
21513;SDS011;10918;48.102;11.636;2022-12-11T05:33:40;15.50;;;9.75;;
21513;SDS011;10918;48.102;11.636;2022-12-11T05:36:06;15.20;;;10.30;;
21513;SDS011;10918;48.102;11.636;2022-12-11T05:38:33;15.35;;;10.18;;
21513;SDS011;10918;48.102;11.636;2022-12-11T05:41:00;16.33;;;10.23;;
21513;SDS011;10918;48.102;11.636;2022-12-11T05:43:27;17.00;;;10.55;;
21513;SDS011;10918;48.102;11.636;2022-12-11T05:45:53;16.13;;;10.20;;
21513;SDS011;10918;48.102;11.636;2022-12-11T05:48:19;16.08;;;10.18;;
21513;SDS011;10918;48.102;11.636;2022-12-11T05:50:54;14.32;;;9.35;;
21513;SDS011;10918;48.102;11.636;2022-12-11T05:53:20;14.85;;;9.25;;
21513;SDS011;10918;48.102;11.636;2022-12-11T05:55:46;14.40;;;9.57;;
21513;SDS011;10918;48.102;11.636;2022-12-11T05:58:12;13.02;;;8.52;;
21513;SDS011;10918;48.102;11.636;2022-12-11T06:00:40;13.57;;;9.27;;
21513;SDS011;10918;48.102;11.636;2022-12-11T06:03:06;13.20;;;8.27;;
21513;SDS011;10918;48.102;11.636;2022-12-11T06:05:36;13.65;;;8.75;;
21513;SDS011;10918;48.102;11.636;2022-12-11T06:08:02;14.85;;;8.27;;
21513;SDS011;10918;48.102;11.636;2022-12-11T06:10:28;15.70;;;9.23;;
21513;SDS011;10918;48.102;11.636;2022-12-11T06:12:54;14.05;;;8.68;;
21513;SDS011;10918;48.102;11.636;2022-12-11T06:15:20;11.65;;;7.95;;
21513;SDS011;10918;48.102;11.636;2022-12-11T06:17:46;11.35;;;8.10;;
21513;SDS011;10918;48.102;11.636;2022-12-11T06:20:12;11.40;;;8.02;;
21513;SDS011;10918;48.102;11.636;2022-12-11T06:22:38;13.35;;;8.13;;
21513;SDS011;10918;48.102;11.636;2022-12-11T06:25:04;14.38;;;8.45;;
21513;SDS011;10918;48.102;11.636;2022-12-11T06:27:31;12.38;;;8.10;;
21513;SDS011;10918;48.102;11.636;2022-12-11T06:29:56;12.30;;;7.95;;
21513;SDS011;10918;48.102;11.636;2022-12-11T06:32:22;12.48;;;7.70;;
21513;SDS011;10918;48.102;11.636;2022-12-11T06:34:48;12.93;;;8.45;;
21513;SDS011;10918;48.102;11.636;2022-12-11T06:37:14;18.42;;;10.27;;
21513;SDS011;10918;48.102;11.636;2022-12-11T06:39:40;15.80;;;8.93;;
21513;SDS011;10918;48.102;11.636;2022-12-11T06:42:06;12.30;;;7.93;;
21513;SDS011;10918;48.102;11.636;2022-12-11T06:44:32;14.77;;;8.40;;
21513;SDS011;10918;48.102;11.636;2022-12-11T06:46:58;13.25;;;8.73;;
21513;SDS011;10918;48.102;11.636;2022-12-11T06:49:25;19.52;;;12.20;;
21513;SDS011;10918;48.102;11.636;2022-12-11T06:51:51;17.73;;;10.73;;
21513;SDS011;10918;48.102;11.636;2022-12-11T06:54:17;14.43;;;9.15;;
21513;SDS011;10918;48.102;11.636;2022-12-11T06:56:43;14.50;;;8.68;;
21513;SDS011;10918;48.102;11.636;2022-12-11T06:59:12;13.38;;;8.50;;
21513;SDS011;10918;48.102;11.636;2022-12-11T07:01:38;14.13;;;9.13;;
21513;SDS011;10918;48.102;11.636;2022-12-11T07:04:04;13.27;;;9.40;;
21513;SDS011;10918;48.102;11.636;2022-12-11T07:06:30;12.73;;;8.25;;
21513;SDS011;10918;48.102;11.636;2022-12-11T07:08:56;18.00;;;9.90;;
21513;SDS011;10918;48.102;11.636;2022-12-11T07:11:22;15.77;;;9.23;;
21513;SDS011;10918;48.102;11.636;2022-12-11T07:13:48;15.02;;;9.02;;
21513;SDS011;10918;48.102;11.636;2022-12-11T07:16:15;14.63;;;8.98;;
21513;SDS011;10918;48.102;11.636;2022-12-11T07:18:42;16.10;;;9.80;;
21513;SDS011;10918;48.102;11.636;2022-12-11T07:21:12;19.98;;;9.75;;
21513;SDS011;10918;48.102;11.636;2022-12-11T07:23:38;16.67;;;9.48;;
21513;SDS011;10918;48.102;11.636;2022-12-11T07:26:05;17.35;;;9.77;;
21513;SDS011;10918;48.102;11.636;2022-12-11T07:28:32;16.50;;;9.95;;
21513;SDS011;10918;48.102;11.636;2022-12-11T07:30:58;16.60;;;10.00;;
21513;SDS011;10918;48.102;11.636;2022-12-11T07:33:24;14.18;;;8.65;;
21513;SDS011;10918;48.102;11.636;2022-12-11T07:35:50;18.02;;;10.88;;
21513;SDS011;10918;48.102;11.636;2022-12-11T07:38:16;16.33;;;9.65;;
21513;SDS011;10918;48.102;11.636;2022-12-11T07:40:42;15.55;;;9.40;;
21513;SDS011;10918;48.102;11.636;2022-12-11T07:43:08;15.40;;;10.05;;
21513;SDS011;10918;48.102;11.636;2022-12-11T07:45:34;15.68;;;9.63;;
21513;SDS011;10918;48.102;11.636;2022-12-11T07:48:00;16.70;;;11.20;;
21513;SDS011;10918;48.102;11.636;2022-12-11T07:50:26;15.93;;;9.80;;
21513;SDS011;10918;48.102;11.636;2022-12-11T07:52:52;14.70;;;9.48;;
21513;SDS011;10918;48.102;11.636;2022-12-11T07:55:18;15.02;;;9.68;;
21513;SDS011;10918;48.102;11.636;2022-12-11T07:57:44;16.90;;;9.70;;
21513;SDS011;10918;48.102;11.636;2022-12-11T08:00:10;13.73;;;9.73;;
21513;SDS011;10918;48.102;11.636;2022-12-11T08:02:36;16.33;;;9.65;;
21513;SDS011;10918;48.102;11.636;2022-12-11T08:05:02;15.00;;;9.77;;
21513;SDS011;10918;48.102;11.636;2022-12-11T08:07:28;17.30;;;10.57;;
21513;SDS011;10918;48.102;11.636;2022-12-11T08:09:54;18.55;;;11.30;;
21513;SDS011;10918;48.102;11.636;2022-12-11T08:12:20;17.00;;;10.50;;
21513;SDS011;10918;48.102;11.636;2022-12-11T08:14:46;17.02;;;10.90;;
21513;SDS011;10918;48.102;11.636;2022-12-11T08:17:12;18.25;;;11.50;;
21513;SDS011;10918;48.102;11.636;2022-12-11T08:19:38;17.55;;;10.90;;
21513;SDS011;10918;48.102;11.636;2022-12-11T08:22:04;17.38;;;10.00;;
21513;SDS011;10918;48.102;11.636;2022-12-11T08:24:30;16.70;;;10.02;;
21513;SDS011;10918;48.102;11.636;2022-12-11T08:26:56;15.73;;;9.55;;
21513;SDS011;10918;48.102;11.636;2022-12-11T08:29:22;16.05;;;10.52;;
21513;SDS011;10918;48.102;11.636;2022-12-11T08:31:48;17.73;;;11.40;;
21513;SDS011;10918;48.102;11.636;2022-12-11T08:34:14;16.33;;;10.63;;
21513;SDS011;10918;48.102;11.636;2022-12-11T08:36:40;16.85;;;10.85;;
21513;SDS011;10918;48.102;11.636;2022-12-11T08:39:06;16.88;;;10.43;;
21513;SDS011;10918;48.102;11.636;2022-12-11T08:41:32;17.88;;;10.63;;
21513;SDS011;10918;48.102;11.636;2022-12-11T08:43:58;15.60;;;9.82;;
21513;SDS011;10918;48.102;11.636;2022-12-11T08:46:26;14.90;;;9.85;;
21513;SDS011;10918;48.102;11.636;2022-12-11T08:48:53;15.55;;;9.82;;
21513;SDS011;10918;48.102;11.636;2022-12-11T08:51:19;15.95;;;9.50;;
21513;SDS011;10918;48.102;11.636;2022-12-11T08:53:46;15.02;;;9.77;;
21513;SDS011;10918;48.102;11.636;2022-12-11T08:56:13;16.45;;;9.88;;
21513;SDS011;10918;48.102;11.636;2022-12-11T08:58:40;19.38;;;11.45;;
21513;SDS011;10918;48.102;11.636;2022-12-11T09:01:06;18.13;;;11.13;;
21513;SDS011;10918;48.102;11.636;2022-12-11T09:03:33;15.52;;;9.32;;
21513;SDS011;10918;48.102;11.636;2022-12-11T09:05:59;18.02;;;11.07;;
21513;SDS011;10918;48.102;11.636;2022-12-11T09:08:28;17.05;;;10.27;;
21513;SDS011;10918;48.102;11.636;2022-12-11T09:10:54;17.48;;;10.30;;
21513;SDS011;10918;48.102;11.636;2022-12-11T09:13:19;16.67;;;9.52;;
21513;SDS011;10918;48.102;11.636;2022-12-11T09:15:45;16.40;;;10.15;;
21513;SDS011;10918;48.102;11.636;2022-12-11T09:18:11;15.85;;;10.02;;
21513;SDS011;10918;48.102;11.636;2022-12-11T09:20:37;15.50;;;9.75;;
21513;SDS011;10918;48.102;11.636;2022-12-11T09:23:03;14.35;;;9.05;;
21513;SDS011;10918;48.102;11.636;2022-12-11T09:25:29;13.65;;;8.32;;
21513;SDS011;10918;48.102;11.636;2022-12-11T09:27:55;13.20;;;8.35;;
21513;SDS011;10918;48.102;11.636;2022-12-11T09:30:21;13.55;;;8.02;;
21513;SDS011;10918;48.102;11.636;2022-12-11T09:32:47;12.23;;;8.18;;
21513;SDS011;10918;48.102;11.636;2022-12-11T09:35:13;13.25;;;8.85;;
21513;SDS011;10918;48.102;11.636;2022-12-11T09:37:39;11.80;;;7.72;;
21513;SDS011;10918;48.102;11.636;2022-12-11T09:40:05;13.45;;;8.35;;
21513;SDS011;10918;48.102;11.636;2022-12-11T09:45:16;12.75;;;8.00;;
21513;SDS011;10918;48.102;11.636;2022-12-11T09:47:43;12.18;;;8.10;;
21513;SDS011;10918;48.102;11.636;2022-12-11T09:53:13;10.77;;;7.78;;
21513;SDS011;10918;48.102;11.636;2022-12-11T09:58:14;15.02;;;9.57;;
21513;SDS011;10918;48.102;11.636;2022-12-11T10:00:45;10.82;;;7.90;;
21513;SDS011;10918;48.102;11.636;2022-12-11T10:03:33;12.18;;;7.38;;
21513;SDS011;10918;48.102;11.636;2022-12-11T10:11:52;9.88;;;6.88;;
21513;SDS011;10918;48.102;11.636;2022-12-11T10:16:49;7.38;;;5.70;;
21513;SDS011;10918;48.102;11.636;2022-12-11T10:19:20;10.48;;;7.40;;
21513;SDS011;10918;48.102;11.636;2022-12-11T10:21:48;9.10;;;6.28;;
21513;SDS011;10918;48.102;11.636;2022-12-11T10:26:57;9.70;;;6.03;;
21513;SDS011;10918;48.102;11.636;2022-12-11T10:29:24;10.02;;;6.38;;
21513;SDS011;10918;48.102;11.636;2022-12-11T10:31:57;11.07;;;6.65;;
21513;SDS011;10918;48.102;11.636;2022-12-11T10:36:55;8.90;;;6.20;;
21513;SDS011;10918;48.102;11.636;2022-12-11T10:39:22;9.00;;;6.15;;
21513;SDS011;10918;48.102;11.636;2022-12-11T10:41:48;9.35;;;6.57;;
21513;SDS011;10918;48.102;11.636;2022-12-11T10:46:41;9.45;;;5.88;;
21513;SDS011;10918;48.102;11.636;2022-12-11T10:49:19;10.43;;;6.35;;
21513;SDS011;10918;48.102;11.636;2022-12-11T10:51:45;9.45;;;6.18;;
21513;SDS011;10918;48.102;11.636;2022-12-11T10:56:49;10.48;;;7.22;;
21513;SDS011;10918;48.102;11.636;2022-12-11T10:59:20;9.35;;;6.18;;
21513;SDS011;10918;48.102;11.636;2022-12-11T11:01:48;8.85;;;6.07;;
21513;SDS011;10918;48.102;11.636;2022-12-11T11:04:15;12.25;;;7.28;;
21513;SDS011;10918;48.102;11.636;2022-12-11T11:06:43;11.02;;;7.72;;
21513;SDS011;10918;48.102;11.636;2022-12-11T11:11:54;8.50;;;5.97;;
21513;SDS011;10918;48.102;11.636;2022-12-11T11:14:20;8.65;;;6.47;;
21513;SDS011;10918;48.102;11.636;2022-12-11T11:16:50;9.05;;;6.43;;
21513;SDS011;10918;48.102;11.636;2022-12-11T11:21:46;9.30;;;6.80;;
21513;SDS011;10918;48.102;11.636;2022-12-11T11:27:12;7.72;;;5.75;;
21513;SDS011;10918;48.102;11.636;2022-12-11T11:29:43;9.45;;;6.40;;
21513;SDS011;10918;48.102;11.636;2022-12-11T11:32:20;9.93;;;6.70;;
21513;SDS011;10918;48.102;11.636;2022-12-11T11:34:47;9.32;;;6.10;;
21513;SDS011;10918;48.102;11.636;2022-12-11T11:37:20;8.73;;;6.40;;
21513;SDS011;10918;48.102;11.636;2022-12-11T11:39:47;9.85;;;6.60;;
21513;SDS011;10918;48.102;11.636;2022-12-11T11:42:22;8.88;;;6.18;;
21513;SDS011;10918;48.102;11.636;2022-12-11T11:47:29;8.20;;;6.03;;
21513;SDS011;10918;48.102;11.636;2022-12-11T11:52:31;10.20;;;6.68;;
21513;SDS011;10918;48.102;11.636;2022-12-11T11:55:07;8.52;;;5.85;;
21513;SDS011;10918;48.102;11.636;2022-12-11T12:02:44;9.10;;;6.65;;
21513;SDS011;10918;48.102;11.636;2022-12-11T12:05:12;10.05;;;6.95;;
21513;SDS011;10918;48.102;11.636;2022-12-11T12:10:14;15.00;;;8.85;;
21513;SDS011;10918;48.102;11.636;2022-12-11T12:17:44;9.25;;;5.95;;
21513;SDS011;10918;48.102;11.636;2022-12-11T12:20:16;9.77;;;6.20;;
21513;SDS011;10918;48.102;11.636;2022-12-11T12:23:02;8.98;;;6.13;;
21513;SDS011;10918;48.102;11.636;2022-12-11T12:33:30;6.88;;;5.40;;
21513;SDS011;10918;48.102;11.636;2022-12-11T12:36:04;7.40;;;5.53;;
21513;SDS011;10918;48.102;11.636;2022-12-11T12:48:37;10.10;;;5.40;;
21513;SDS011;10918;48.102;11.636;2022-12-11T12:51:03;7.70;;;5.18;;
21513;SDS011;10918;48.102;11.636;2022-12-11T12:53:30;13.02;;;8.23;;
21513;SDS011;10918;48.102;11.636;2022-12-11T12:55:57;12.15;;;8.35;;
21513;SDS011;10918;48.102;11.636;2022-12-11T12:58:25;7.20;;;5.40;;
21513;SDS011;10918;48.102;11.636;2022-12-11T13:00:51;8.00;;;5.45;;
21513;SDS011;10918;48.102;11.636;2022-12-11T13:06:00;7.32;;;5.60;;
21513;SDS011;10918;48.102;11.636;2022-12-11T13:08:27;7.18;;;5.13;;
21513;SDS011;10918;48.102;11.636;2022-12-11T13:11:01;6.13;;;4.72;;
21513;SDS011;10918;48.102;11.636;2022-12-11T13:16:06;6.95;;;4.80;;
21513;SDS011;10918;48.102;11.636;2022-12-11T13:18:33;5.97;;;4.57;;
21513;SDS011;10918;48.102;11.636;2022-12-11T13:21:01;6.32;;;4.75;;
21513;SDS011;10918;48.102;11.636;2022-12-11T13:23:31;7.90;;;4.32;;
21513;SDS011;10918;48.102;11.636;2022-12-11T13:25:58;6.43;;;3.92;;
21513;SDS011;10918;48.102;11.636;2022-12-11T13:28:25;7.15;;;5.25;;
21513;SDS011;10918;48.102;11.636;2022-12-11T13:30:55;19.98;;;13.20;;
21513;SDS011;10918;48.102;11.636;2022-12-11T13:33:21;22.35;;;14.02;;
21513;SDS011;10918;48.102;11.636;2022-12-11T13:35:48;7.47;;;5.20;;
21513;SDS011;10918;48.102;11.636;2022-12-11T13:38:26;7.47;;;4.72;;
21513;SDS011;10918;48.102;11.636;2022-12-11T13:40:54;5.63;;;4.53;;
21513;SDS011;10918;48.102;11.636;2022-12-11T13:43:22;6.90;;;5.25;;
21513;SDS011;10918;48.102;11.636;2022-12-11T13:45:50;7.00;;;5.32;;
21513;SDS011;10918;48.102;11.636;2022-12-11T13:48:20;5.88;;;4.32;;
21513;SDS011;10918;48.102;11.636;2022-12-11T13:50:47;7.13;;;4.80;;
21513;SDS011;10918;48.102;11.636;2022-12-11T13:53:15;7.53;;;4.55;;
21513;SDS011;10918;48.102;11.636;2022-12-11T13:55:42;6.70;;;4.88;;
21513;SDS011;10918;48.102;11.636;2022-12-11T13:58:18;7.20;;;5.43;;
21513;SDS011;10918;48.102;11.636;2022-12-11T14:03:30;11.18;;;7.88;;
21513;SDS011;10918;48.102;11.636;2022-12-11T14:05:56;16.67;;;11.25;;
21513;SDS011;10918;48.102;11.636;2022-12-11T14:08:23;7.15;;;4.82;;
21513;SDS011;10918;48.102;11.636;2022-12-11T14:10:51;7.28;;;5.25;;
21513;SDS011;10918;48.102;11.636;2022-12-11T14:13:20;7.00;;;4.60;;
21513;SDS011;10918;48.102;11.636;2022-12-11T14:15:46;7.30;;;5.15;;
21513;SDS011;10918;48.102;11.636;2022-12-11T14:18:17;6.85;;;4.60;;
21513;SDS011;10918;48.102;11.636;2022-12-11T14:20:44;7.05;;;4.47;;
21513;SDS011;10918;48.102;11.636;2022-12-11T14:23:18;8.02;;;5.10;;
21513;SDS011;10918;48.102;11.636;2022-12-11T14:25:54;10.82;;;4.80;;
21513;SDS011;10918;48.102;11.636;2022-12-11T14:28:21;8.68;;;4.90;;
21513;SDS011;10918;48.102;11.636;2022-12-11T14:30:51;7.80;;;5.05;;
21513;SDS011;10918;48.102;11.636;2022-12-11T14:33:19;7.80;;;5.03;;
21513;SDS011;10918;48.102;11.636;2022-12-11T14:35:46;7.72;;;5.00;;
21513;SDS011;10918;48.102;11.636;2022-12-11T14:38:17;7.03;;;4.97;;
21513;SDS011;10918;48.102;11.636;2022-12-11T14:40:46;9.10;;;5.18;;
21513;SDS011;10918;48.102;11.636;2022-12-11T14:43:14;10.23;;;5.05;;
21513;SDS011;10918;48.102;11.636;2022-12-11T14:45:45;8.15;;;5.22;;
21513;SDS011;10918;48.102;11.636;2022-12-11T14:48:14;10.88;;;7.55;;
21513;SDS011;10918;48.102;11.636;2022-12-11T14:50:43;10.27;;;7.70;;
21513;SDS011;10918;48.102;11.636;2022-12-11T14:53:21;8.32;;;5.63;;
21513;SDS011;10918;48.102;11.636;2022-12-11T14:55:48;8.32;;;5.35;;
21513;SDS011;10918;48.102;11.636;2022-12-11T14:58:22;9.35;;;5.82;;
21513;SDS011;10918;48.102;11.636;2022-12-11T15:01:02;11.02;;;6.25;;
21513;SDS011;10918;48.102;11.636;2022-12-11T15:03:32;7.75;;;5.20;;
21513;SDS011;10918;48.102;11.636;2022-12-11T15:06:00;8.60;;;5.68;;
21513;SDS011;10918;48.102;11.636;2022-12-11T15:08:27;8.68;;;5.53;;
21513;SDS011;10918;48.102;11.636;2022-12-11T15:13:32;6.88;;;5.28;;
21513;SDS011;10918;48.102;11.636;2022-12-11T15:15:59;10.35;;;6.25;;
21513;SDS011;10918;48.102;11.636;2022-12-11T15:18:30;8.57;;;5.72;;
21513;SDS011;10918;48.102;11.636;2022-12-11T15:20:58;8.15;;;5.47;;
21513;SDS011;10918;48.102;11.636;2022-12-11T15:23:25;10.82;;;6.35;;
21513;SDS011;10918;48.102;11.636;2022-12-11T15:25:52;9.75;;;6.70;;
21513;SDS011;10918;48.102;11.636;2022-12-11T15:28:26;10.02;;;6.85;;
21513;SDS011;10918;48.102;11.636;2022-12-11T15:30:54;10.43;;;6.75;;
21513;SDS011;10918;48.102;11.636;2022-12-11T15:33:20;14.32;;;9.25;;
21513;SDS011;10918;48.102;11.636;2022-12-11T15:36:03;10.48;;;7.82;;
21513;SDS011;10918;48.102;11.636;2022-12-11T15:38:33;14.20;;;8.52;;
21513;SDS011;10918;48.102;11.636;2022-12-11T15:41:00;20.08;;;14.10;;
21513;SDS011;10918;48.102;11.636;2022-12-11T15:43:26;11.80;;;7.32;;
21513;SDS011;10918;48.102;11.636;2022-12-11T15:45:53;8.73;;;6.28;;
21513;SDS011;10918;48.102;11.636;2022-12-11T15:48:19;8.77;;;6.85;;
21513;SDS011;10918;48.102;11.636;2022-12-11T15:50:45;9.18;;;6.43;;
21513;SDS011;10918;48.102;11.636;2022-12-11T15:53:11;9.27;;;6.53;;
21513;SDS011;10918;48.102;11.636;2022-12-11T15:55:37;11.20;;;7.07;;
21513;SDS011;10918;48.102;11.636;2022-12-11T15:58:04;13.25;;;8.15;;
21513;SDS011;10918;48.102;11.636;2022-12-11T16:00:31;11.85;;;8.43;;